Time;durP1;ratioP1;P1;durP2;ratioP2;P2;SDS_P1;SDS_P2;PMS_P1;PMS_P2;Temp;Humidity;BMP_temperature;BMP_pressure;BME280_temperature;BME280_humidity;BME280_pressure;Samples;Min_cycle;Max_cycle;Signal;HPM_P1;HPM_P2
2023/12/04 00:03:12;;;;;;;;;;;;;;;16.84;41.91;99493.78;10283611;28;1957;-70
2023/12/04 00:08:08;;;;;;;;;;;;;;;16.81;41.83;99507.06;10284820;28;783;-70
2023/12/04 00:13:04;;;;;;;;;;;;;;;16.76;42.11;99508.16;10292135;28;770;-69
2023/12/04 00:17:59;;;;;;;;;;;;;;;16.77;42.02;99500.25;10293424;28;870;-69
2023/12/04 00:22:55;;;;;;;;;;;;;;;16.79;41.88;99487.88;10292530;28;1949;-70
2023/12/04 00:27:51;;;;;;;;;;;;;;;16.76;41.89;99498.47;10291244;28;1324;-69
2023/12/04 00:32:47;;;;;;;;;;;;;;;16.78;41.91;99478.25;10291443;28;1150;-70
2023/12/04 00:37:43;;;;;;;;;;;;;;;16.78;41.85;99470.34;10291535;28;858;-70
2023/12/04 00:42:39;;;;;;;;;;;;;;;16.76;41.73;99466.91;10291296;28;814;-70
2023/12/04 00:47:35;;;;;;;;;;;;;;;16.76;41.94;99469.53;10291602;28;1906;-69
2023/12/04 00:52:31;;;;;;;;;;;;;;;16.75;42.05;99475.72;10291774;28;818;-69
2023/12/04 00:57:26;;;;;;;;;;;;;;;16.75;41.90;99461.72;10290696;28;862;-70
2023/12/04 01:02:22;;;;;;;;;;;;;;;16.73;42.00;99463.56;10290499;28;887;-70
2023/12/04 01:07:18;;;;;;;;;;;;;;;16.76;42.13;99471.31;10290357;28;1961;-70
2023/12/04 01:12:14;;;;;;;;;;;;;;;16.71;42.07;99468.03;10291008;28;786;-70
2023/12/04 01:17:10;;;;;;;;;;;;;;;16.71;41.96;99460.13;10290759;28;954;-69
2023/12/04 01:22:06;;;;;;;;;;;;;;;16.71;42.02;99439.94;10288872;28;838;-69
2023/12/04 01:27:02;;;;;;;;;;;;;;;16.69;42.04;99439.16;10290234;28;1937;-70
2023/12/04 01:31:58;;;;;;;;;;;;;;;16.67;42.13;99437.53;10289171;28;911;-69
2023/12/04 01:36:53;;;;;;;;;;;;;;;16.69;42.15;99433.91;10289375;28;1333;-69
2023/12/04 01:41:49;;;;;;;;;;;;;;;16.68;42.08;99432.16;10289645;28;910;-69
2023/12/04 01:46:45;;;;;;;;;;;;;;;16.66;42.33;99420.84;10288745;28;1972;-69
2023/12/04 01:51:41;;;;;;;;;;;;;;;16.65;42.18;99416.53;10289742;28;771;-70
2023/12/04 01:56:37;;;;;;;;;;;;;;;16.69;42.19;99398.81;10289641;28;887;-70
2023/12/04 02:01:33;;;;;;;;;;;;;;;16.64;42.11;99399.03;10288382;28;761;-69
2023/12/04 02:06:29;;;;;;;;;;;;;;;16.62;42.15;99383.31;10288643;28;1878;-69
2023/12/04 02:11:25;;;;;;;;;;;;;;;16.64;42.05;99384.09;10287892;28;834;-69
2023/12/04 02:16:21;;;;;;;;;;;;;;;16.62;42.06;99380.66;10287724;28;821;-69
2023/12/04 02:21:17;;;;;;;;;;;;;;;16.60;41.94;99381.66;10287686;28;889;-70
2023/12/04 02:26:12;;;;;;;;;;;;;;;16.61;41.99;99383.34;10287278;28;1898;-69
2023/12/04 02:31:08;;;;;;;;;;;;;;;16.60;41.92;99387.78;10287112;28;772;-70
2023/12/04 02:36:04;;;;;;;;;;;;;;;16.60;42.10;99394.81;10287083;28;1338;-70
2023/12/04 02:41:00;;;;;;;;;;;;;;;16.59;41.82;99380.81;10287324;28;826;-70
2023/12/04 02:45:56;;;;;;;;;;;;;;;16.60;42.06;99384.28;10286508;28;1905;-69
2023/12/04 02:50:52;;;;;;;;;;;;;;;16.59;41.98;99380.81;10286388;28;850;-70
2023/12/04 02:55:48;;;;;;;;;;;;;;;16.57;42.16;99361.59;10286199;28;879;-69
2023/12/04 03:00:43;;;;;;;;;;;;;;;16.58;42.17;99354.56;10286620;28;822;-69
2023/12/04 03:05:39;;;;;;;;;;;;;;;16.56;42.08;99346.75;10285768;28;1906;-69
2023/12/04 03:10:35;;;;;;;;;;;;;;;16.59;41.89;99343.13;10286187;28;969;-70
2023/12/04 03:15:31;;;;;;;;;;;;;;;16.59;41.92;99333.44;10286090;28;868;-70
2023/12/04 03:20:27;;;;;;;;;;;;;;;16.55;42.09;99316.06;10285300;28;819;-70
2023/12/04 03:25:23;;;;;;;;;;;;;;;16.55;42.04;99316.06;10285813;28;1959;-69
2023/12/04 03:30:20;;;;;;;;;;;;;;;16.57;42.02;99305.50;10285802;28;810;-70
2023/12/04 03:35:16;;;;;;;;;;;;;;;16.55;41.90;99295.03;10284688;28;2011;-70
2023/12/04 03:40:12;;;;;;;;;;;;;;;16.54;42.06;99295.97;10285461;28;949;-70
2023/12/04 03:45:07;;;;;;;;;;;;;;;16.54;42.08;99288.06;10284169;28;1981;-70
2023/12/04 03:50:03;;;;;;;;;;;;;;;16.52;41.93;99284.66;10284514;28;835;-70
2023/12/04 03:54:59;;;;;;;;;;;;;;;16.51;42.05;99287.38;10285011;28;811;-70
2023/12/04 03:59:55;;;;;;;;;;;;;;;16.56;41.86;99274.88;10285031;28;853;-70
2023/12/04 04:04:51;;;;;;;;;;;;;;;16.53;42.13;99281.13;10284818;28;1918;-69
2023/12/04 04:09:47;;;;;;;;;;;;;;;16.50;41.93;99275.13;10284813;28;842;-69
2023/12/04 04:14:43;;;;;;;;;;;;;;;16.53;41.97;99275.84;10284124;28;797;-69
2023/12/04 04:19:39;;;;;;;;;;;;;;;16.52;41.92;99278.53;10283978;28;1052;-70
2023/12/04 04:24:34;;;;;;;;;;;;;;;16.50;42.03;99275.97;10284857;28;1961;-70
2023/12/04 04:29:30;;;;;;;;;;;;;;;16.58;42.07;99267.72;10283825;28;984;-70
2023/12/04 04:34:26;;;;;;;;;;;;;;;16.60;42.01;99263.25;10283237;28;1594;-70
2023/12/04 04:39:22;;;;;;;;;;;;;;;16.60;41.91;99261.47;10283617;28;786;-69
2023/12/04 04:44:18;;;;;;;;;;;;;;;16.67;41.61;99251.53;10283437;28;1914;-69
2023/12/04 04:49:14;;;;;;;;;;;;;;;16.63;41.92;99242.06;10283438;28;869;-70
2023/12/04 04:54:10;;;;;;;;;;;;;;;16.74;41.32;99239.81;10283350;28;875;-70
2023/12/04 04:59:06;;;;;;;;;;;;;;;16.80;41.22;99234.28;10289062;28;1222;-71
2023/12/04 05:04:01;;;;;;;;;;;;;;;16.76;41.51;99232.66;10290409;28;1890;-70
2023/12/04 05:08:57;;;;;;;;;;;;;;;16.83;41.23;99230.63;10291229;28;936;-70
2023/12/04 05:13:53;;;;;;;;;;;;;;;16.85;41.40;99229.66;10290135;28;870;-73
2023/12/04 05:18:49;;;;;;;;;;;;;;;16.88;41.48;99218.13;10290042;28;823;-73
2023/12/04 05:23:45;;;;;;;;;;;;;;;16.93;41.57;99218.75;10290258;28;1956;-70
2023/12/04 05:28:41;;;;;;;;;;;;;;;16.89;41.38;99213.69;10318720;28;1391;-70
2023/12/04 05:33:37;;;;;;;;;;;;;;;16.88;41.49;99206.75;10329021;28;1095;-70
2023/12/04 05:38:39;;;;;;;;;;;;;;;16.88;41.63;99204.94;10329827;28;813;-70
2023/12/04 05:43:35;;;;;;;;;;;;;;;16.89;41.30;99193.47;10326740;28;1971;-70
2023/12/04 05:48:30;;;;;;;;;;;;;;;16.88;41.29;99191.78;10330022;28;944;-69
2023/12/04 05:53:26;;;;;;;;;;;;;;;16.95;41.24;99198.47;10328413;28;865;-73
2023/12/04 05:58:22;;;;;;;;;;;;;;;16.97;41.33;99183.44;10329088;28;870;-70
2023/12/04 06:03:18;;;;;;;;;;;;;;;16.98;41.29;99184.31;10329340;28;1897;-71
2023/12/04 06:08:14;;;;;;;;;;;;;;;16.96;41.39;99183.53;10328343;28;767;-71
2023/12/04 06:13:10;;;;;;;;;;;;;;;16.97;41.15;99172.06;10328447;28;825;-69
2023/12/04 06:18:06;;;;;;;;;;;;;;;16.99;41.33;99176.31;10328352;28;866;-71
2023/12/04 06:23:02;;;;;;;;;;;;;;;17.02;41.38;99183.22;10328189;28;874;-72
2023/12/04 06:27:58;;;;;;;;;;;;;;;16.97;41.36;99193.13;10327881;28;1890;-70
2023/12/04 06:32:53;;;;;;;;;;;;;;;16.97;41.44;99179.94;10328244;28;1451;-70
2023/12/04 06:37:49;;;;;;;;;;;;;;;16.96;41.40;99184.38;10328295;28;918;-71
2023/12/04 06:42:45;;;;;;;;;;;;;;;16.98;41.50;99182.53;10327369;28;875;-71
2023/12/04 06:47:41;;;;;;;;;;;;;;;16.97;41.29;99172.91;10327063;28;1983;-71
2023/12/04 06:52:37;;;;;;;;;;;;;;;16.92;41.54;99164.38;10326993;28;882;-71
2023/12/04 06:57:33;;;;;;;;;;;;;;;16.99;41.43;99154.41;10327071;28;864;-70
2023/12/04 07:02:29;;;;;;;;;;;;;;;16.95;41.55;99127.41;10327367;28;873;-70
2023/12/04 07:07:25;;;;;;;;;;;;;;;16.91;41.64;99117.09;10326570;28;1898;-70
2023/12/04 07:12:21;;;;;;;;;;;;;;;16.85;41.60;99112.97;10326224;28;794;-70
2023/12/04 07:17:17;;;;;;;;;;;;;;;16.82;41.67;99103.47;10325313;28;1161;-70
2023/12/04 07:22:13;;;;;;;;;;;;;;;16.78;41.68;99108.94;10325012;28;798;-70
2023/12/04 07:27:09;;;;;;;;;;;;;;;16.74;41.73;99094.19;10326112;28;1894;-70
2023/12/04 07:32:05;;;;;;;;;;;;;;;16.66;41.46;99091.91;10325826;28;1022;-70
2023/12/04 07:37:01;;;;;;;;;;;;;;;16.66;41.70;99086.66;10326023;28;1453;-72
2023/12/04 07:41:56;;;;;;;;;;;;;;;16.69;41.73;99097.06;10326194;28;876;-70
2023/12/04 07:46:52;;;;;;;;;;;;;;;16.71;41.76;99089.06;10325393;28;1913;-70
2023/12/04 07:51:48;;;;;;;;;;;;;;;16.70;41.67;99080.34;10325945;28;842;-70
2023/12/04 07:56:44;;;;;;;;;;;;;;;16.78;41.57;99074.72;10325362;28;892;-72
2023/12/04 08:01:40;;;;;;;;;;;;;;;16.80;41.57;99068.47;10325220;28;868;-71
2023/12/04 08:06:36;;;;;;;;;;;;;;;16.83;41.61;99063.03;10325548;28;1966;-70
2023/12/04 08:11:32;;;;;;;;;;;;;;;16.89;41.40;99071.56;10324929;28;777;-70
2023/12/04 08:16:28;;;;;;;;;;;;;;;16.89;41.49;99055.75;10325692;28;870;-70
2023/12/04 08:21:24;;;;;;;;;;;;;;;16.94;41.29;99061.66;10325380;28;769;-70
2023/12/04 08:26:20;;;;;;;;;;;;;;;16.95;41.41;99055.44;10324741;28;1893;-70
2023/12/04 08:31:16;;;;;;;;;;;;;;;16.88;41.46;99054.06;10327991;28;893;-68
2023/12/04 08:36:12;;;;;;;;;;;;;;;16.84;41.50;99053.34;10332135;28;1227;-70
2023/12/04 08:41:08;;;;;;;;;;;;;;;16.95;41.31;99048.41;10332110;28;769;-71
2023/12/04 08:46:04;;;;;;;;;;;;;;;16.98;41.40;99039.50;10331847;28;1905;-71
2023/12/04 08:51:00;;;;;;;;;;;;;;;17.00;41.17;99035.00;10331788;28;826;-70
2023/12/04 08:55:57;;;;;;;;;;;;;;;17.00;41.08;99035.88;10331556;28;896;-71
2023/12/04 09:00:53;;;;;;;;;;;;;;;17.00;41.32;99040.25;10332235;28;913;-70
2023/12/04 09:05:51;;;;;;;;;;;;;;;17.05;41.09;99031.19;10331099;28;1955;-71
2023/12/04 09:10:47;;;;;;;;;;;;;;;17.05;41.20;99035.63;10330891;28;954;-71
2023/12/04 09:15:43;;;;;;;;;;;;;;;17.04;41.07;99012.88;10330194;28;901;-70
2023/12/04 09:20:39;;;;;;;;;;;;;;;17.03;41.31;99021.69;10330869;28;876;-72
2023/12/04 09:25:35;;;;;;;;;;;;;;;17.02;41.30;99020.81;10331229;28;1961;-70
2023/12/04 09:30:31;;;;;;;;;;;;;;;16.99;41.01;99007.81;10329671;28;1235;-70
2023/12/04 09:35:26;;;;;;;;;;;;;;;17.04;41.12;99020.75;10330741;28;1240;-70
2023/12/04 09:40:22;;;;;;;;;;;;;;;17.01;40.90;99010.38;10329276;28;881;-75
2023/12/04 09:45:18;;;;;;;;;;;;;;;17.02;40.99;99019.97;10327764;28;1969;-70
2023/12/04 09:50:14;;;;;;;;;;;;;;;17.07;40.94;99015.31;10329512;28;879;-74
2023/12/04 09:55:10;;;;;;;;;;;;;;;17.02;40.82;98996.28;10329039;28;922;-72
2023/12/04 10:00:06;;;;;;;;;;;;;;;17.06;40.76;98992.56;10328820;28;872;-70
2023/12/04 10:05:04;;;;;;;;;;;;;;;17.06;40.92;98966.25;10329895;28;1977;-70
2023/12/04 10:10:00;;;;;;;;;;;;;;;17.05;40.78;98961.88;10328638;28;851;-70
2023/12/04 10:14:56;;;;;;;;;;;;;;;17.03;40.91;98959.34;10329251;28;839;-70
2023/12/04 10:19:52;;;;;;;;;;;;;;;17.07;40.73;98941.59;10328379;28;806;-71
2023/12/04 10:24:48;;;;;;;;;;;;;;;17.05;40.84;98932.94;10328106;28;1894;-69
2023/12/04 10:29:44;;;;;;;;;;;;;;;17.07;41.05;98924.03;10328835;28;814;-70
2023/12/04 10:34:46;;;;;;;;;;;;;;;17.06;40.78;98927.59;10328839;28;1236;-69
2023/12/04 10:39:42;;;;;;;;;;;;;;;17.08;40.85;98919.59;10327997;28;810;-69
2023/12/04 10:44:39;;;;;;;;;;;;;;;17.06;40.96;98908.31;10327888;28;1922;-70
2023/12/04 10:49:35;;;;;;;;;;;;;;;17.06;40.70;98916.22;10327281;28;866;-69
2023/12/04 10:54:32;;;;;;;;;;;;;;;17.08;40.83;98909.94;10326686;28;823;-70
2023/12/04 10:59:31;;;;;;;;;;;;;;;17.06;40.72;98905.69;10326783;28;857;-69
2023/12/04 11:04:27;;;;;;;;;;;;;;;17.06;40.92;98896.00;10326566;28;2046;-69
2023/12/04 11:09:26;;;;;;;;;;;;;;;17.08;40.81;98878.34;10327031;28;870;-69
2023/12/04 11:14:22;;;;;;;;;;;;;;;17.07;40.79;98878.41;10326213;28;981;-69
2023/12/04 11:19:18;;;;;;;;;;;;;;;17.09;40.88;98876.56;10326752;28;858;-69
2023/12/04 11:24:14;;;;;;;;;;;;;;;17.08;40.98;98862.53;10326587;28;1894;-69
2023/12/04 11:29:10;;;;;;;;;;;;;;;17.07;40.85;98854.72;10326529;28;834;-70
2023/12/04 11:34:06;;;;;;;;;;;;;;;17.08;40.83;98841.50;10325544;28;1398;-70
2023/12/04 11:39:03;;;;;;;;;;;;;;;17.07;40.96;98842.41;10326282;28;790;-70
2023/12/04 11:43:58;;;;;;;;;;;;;;;17.07;40.68;98838.91;10325440;28;1973;-70
2023/12/04 11:48:54;;;;;;;;;;;;;;;17.01;40.78;98829.59;10325450;28;785;-70
2023/12/04 11:53:50;;;;;;;;;;;;;;;17.08;40.68;98824.81;10325252;28;907;-70
2023/12/04 11:58:46;;;;;;;;;;;;;;;17.09;40.78;98818.63;10325205;28;943;-70
2023/12/04 12:03:42;;;;;;;;;;;;;;;17.09;40.76;98816.84;10325137;28;1910;-70
2023/12/04 12:08:38;;;;;;;;;;;;;;;17.07;41.01;98808.16;10333806;28;920;-70
2023/12/04 12:13:34;;;;;;;;;;;;;;;17.07;40.82;98807.31;10333290;28;1600;-70
2023/12/04 12:18:30;;;;;;;;;;;;;;;17.09;40.95;98806.31;10334489;28;964;-70
2023/12/04 12:23:26;;;;;;;;;;;;;;;17.05;40.99;98804.75;10332917;28;1894;-71
2023/12/04 12:28:22;;;;;;;;;;;;;;;17.10;40.91;98807.16;10332724;28;808;-72
2023/12/04 12:33:19;;;;;;;;;;;;;;;17.08;40.75;98801.13;10332617;28;1144;-70
2023/12/04 12:38:15;;;;;;;;;;;;;;;17.12;40.67;98800.03;10332279;28;871;-70
2023/12/04 12:43:11;;;;;;;;;;;;;;;17.12;40.83;98784.22;10332047;28;890;-70
2023/12/04 12:48:06;;;;;;;;;;;;;;;17.14;40.99;98771.84;10331828;28;1906;-69
2023/12/04 12:53:02;;;;;;;;;;;;;;;17.12;40.82;98763.16;10331742;28;906;-71
2023/12/04 12:57:58;;;;;;;;;;;;;;;17.15;41.06;98763.00;10332146;28;790;-70
2023/12/04 13:02:54;;;;;;;;;;;;;;;17.13;40.81;98748.22;10331349;28;889;-70
2023/12/04 13:07:50;;;;;;;;;;;;;;;17.12;40.95;98741.25;10331175;28;1956;-70
2023/12/04 13:12:46;;;;;;;;;;;;;;;17.13;40.84;98738.53;10330424;28;881;-70
2023/12/04 13:17:42;;;;;;;;;;;;;;;17.12;40.98;98731.56;10329884;28;907;-70
2023/12/04 13:22:37;;;;;;;;;;;;;;;17.13;40.89;98733.25;10330182;28;999;-70
2023/12/04 13:27:33;;;;;;;;;;;;;;;17.14;40.82;98723.59;10330487;28;1894;-70
2023/12/04 13:32:29;;;;;;;;;;;;;;;17.13;41.04;98716.63;10330864;28;1080;-70
2023/12/04 13:37:28;;;;;;;;;;;;;;;17.14;40.89;98711.28;10329934;28;1295;-70
2023/12/04 13:47:38;;;;;;;;;;;;;;;17.14;41.07;98702.53;10329809;28;1975;-71
2023/12/04 13:52:34;;;;;;;;;;;;;;;17.16;40.91;98690.97;10329441;28;899;-70
2023/12/04 13:57:43;;;;;;;;;;;;;;;17.12;41.25;98681.53;10329058;28;898;-70
2023/12/04 14:02:39;;;;;;;;;;;;;;;17.14;40.99;98677.03;10329267;28;851;-70
2023/12/04 14:07:35;;;;;;;;;;;;;;;17.14;41.36;98669.16;10329157;28;1951;-70
2023/12/04 14:12:31;;;;;;;;;;;;;;;17.10;41.19;98662.34;10329064;28;814;-70
2023/12/04 14:17:27;;;;;;;;;;;;;;;17.01;41.44;98658.47;10328836;28;861;-70
2023/12/04 14:22:23;;;;;;;;;;;;;;;16.97;41.57;98656.09;10328688;28;874;-70
2023/12/04 14:27:19;;;;;;;;;;;;;;;16.99;41.45;98643.69;10326894;28;1959;-70
2023/12/04 14:32:14;;;;;;;;;;;;;;;17.00;41.31;98632.22;10328180;28;964;-70
2023/12/04 14:37:10;;;;;;;;;;;;;;;17.00;41.29;98634.84;10327011;28;1518;-70
2023/12/04 14:42:06;;;;;;;;;;;;;;;16.97;41.40;98622.72;10327227;28;787;-70
2023/12/04 14:47:04;;;;;;;;;;;;;;;17.02;41.50;98619.81;10327602;28;1917;-70
2023/12/04 14:52:00;;;;;;;;;;;;;;;16.99;41.70;98618.22;10326799;28;852;-69
2023/12/04 15:08:24;;;;;;;;;;;;;;;17.08;41.55;98572.06;10275429;28;1894;-69
2023/12/04 15:23:22;;;;;;;;;;;;;;;17.16;41.81;98563.72;10325371;28;711;-70
2023/12/04 15:28:18;;;;;;;;;;;;;;;17.17;41.74;98555.72;10325618;28;1901;-71
2023/12/04 15:33:14;;;;;;;;;;;;;;;17.12;41.78;98538.53;10325826;28;1313;-70
2023/12/04 15:38:10;;;;;;;;;;;;;;;17.08;41.94;98538.72;10325464;28;817;-71
2023/12/04 15:43:06;;;;;;;;;;;;;;;17.03;42.17;98532.03;10324671;28;877;-70
2023/12/04 15:48:02;;;;;;;;;;;;;;;16.98;42.15;98521.75;10325180;28;1969;-71
2023/12/04 15:52:58;;;;;;;;;;;;;;;16.95;42.04;98516.69;10325556;28;806;-70
2023/12/04 15:57:54;;;;;;;;;;;;;;;16.96;42.27;98504.38;10325019;28;857;-69
2023/12/04 16:02:50;;;;;;;;;;;;;;;16.91;42.29;98502.00;10324917;28;901;-70
2023/12/04 16:07:48;;;;;;;;;;;;;;;16.86;42.18;98496.16;10325554;28;1894;-69
2023/12/04 16:12:44;;;;;;;;;;;;;;;16.90;42.09;98489.78;10325360;28;880;-68
2023/12/04 16:17:40;;;;;;;;;;;;;;;16.91;42.03;98485.38;10324706;28;864;-69
2023/12/04 16:22:37;;;;;;;;;;;;;;;16.94;42.10;98479.91;10324583;28;796;-69
2023/12/04 16:27:32;;;;;;;;;;;;;;;16.94;42.02;98474.66;10324384;28;1957;-69
2023/12/04 16:32:28;;;;;;;;;;;;;;;16.95;42.03;98457.91;10324352;28;917;-69
2023/12/04 16:37:24;;;;;;;;;;;;;;;16.99;41.90;98451.53;10324640;28;1167;-72
2023/12/04 16:42:20;;;;;;;;;;;;;;;17.03;41.37;98453.06;10324809;28;875;-71
2023/12/04 16:47:17;;;;;;;;;;;;;;;17.03;41.30;98448.63;10324007;28;1914;-71
2023/12/04 16:52:14;;;;;;;;;;;;;;;17.06;41.32;98447.59;10327030;28;934;-71
2023/12/04 16:57:10;;;;;;;;;;;;;;;17.08;41.11;98429.91;10331313;28;1030;-70
2023/12/04 17:02:06;;;;;;;;;;;;;;;17.12;41.01;98426.16;10331280;28;942;-74
2023/12/04 17:07:02;;;;;;;;;;;;;;;17.11;41.09;98424.47;10331017;28;1947;-70
2023/12/04 17:11:58;;;;;;;;;;;;;;;17.06;41.36;98426.53;10331497;28;864;-71
2023/12/04 17:16:54;;;;;;;;;;;;;;;17.14;41.28;98421.66;10330929;28;886;-71
2023/12/04 17:21:51;;;;;;;;;;;;;;;17.14;41.25;98412.91;10331385;28;878;-71
2023/12/04 17:26:46;;;;;;;;;;;;;;;17.17;41.28;98412.72;10332052;28;1902;-70
2023/12/04 17:31:44;;;;;;;;;;;;;;;17.17;41.29;98416.19;10330295;28;914;-71
2023/12/04 17:36:40;;;;;;;;;;;;;;;17.17;41.48;98408.28;10331303;28;1215;-71
2023/12/04 17:41:36;;;;;;;;;;;;;;;17.20;41.51;98402.81;10330737;28;966;-70
2023/12/04 17:46:31;;;;;;;;;;;;;;;17.21;41.36;98401.91;10329178;28;1906;-71
2023/12/04 17:51:28;;;;;;;;;;;;;;;17.18;41.43;98391.53;10330263;28;866;-71
2023/12/04 17:56:24;;;;;;;;;;;;;;;17.20;41.47;98389.66;10330072;28;924;-71
2023/12/04 18:01:20;;;;;;;;;;;;;;;17.18;41.40;98388.91;10329293;28;779;-70
2023/12/04 18:06:16;;;;;;;;;;;;;;;17.22;41.32;98382.50;10329014;28;1898;-70
2023/12/04 18:11:11;;;;;;;;;;;;;;;17.21;41.37;98378.19;10329733;28;869;-70
2023/12/04 18:16:07;;;;;;;;;;;;;;;17.21;41.39;98372.94;10329284;28;976;-70
2023/12/04 18:21:03;;;;;;;;;;;;;;;17.23;41.52;98370.19;10328469;28;895;-71
2023/12/04 18:25:59;;;;;;;;;;;;;;;17.23;41.35;98371.03;10328518;28;1894;-70
2023/12/04 18:30:55;;;;;;;;;;;;;;;17.23;41.39;98367.56;10328609;28;810;-70
2023/12/04 18:35:51;;;;;;;;;;;;;;;17.24;41.41;98362.22;10328612;28;1150;-70
2023/12/04 18:40:47;;;;;;;;;;;;;;;17.24;41.30;98354.31;10328831;28;870;-70
2023/12/04 18:45:42;;;;;;;;;;;;;;;17.25;41.38;98358.63;10326950;28;1910;-70
2023/12/04 18:50:40;;;;;;;;;;;;;;;17.27;41.35;98359.38;10327275;28;850;-70
2023/12/04 18:55:36;;;;;;;;;;;;;;;17.25;41.39;98352.50;10327105;28;805;-70
2023/12/04 19:00:33;;;;;;;;;;;;;;;17.26;41.41;98354.19;10326911;28;870;-70
2023/12/04 19:05:30;;;;;;;;;;;;;;;17.24;41.42;98346.41;10326604;28;1894;-71
2023/12/04 19:10:26;;;;;;;;;;;;;;;17.19;41.54;98345.84;10327108;28;796;-71
2023/12/04 19:15:22;;;;;;;;;;;;;;;17.25;41.22;98342.81;10324935;28;917;-70
2023/12/04 19:20:18;;;;;;;;;;;;;;;17.28;41.36;98342.63;10326849;28;972;-70
2023/12/04 19:25:14;;;;;;;;;;;;;;;17.26;41.22;98341.03;10326617;28;1949;-70
2023/12/04 19:30:10;;;;;;;;;;;;;;;17.27;41.35;98330.41;10326692;28;852;-70
2023/12/04 19:35:06;;;;;;;;;;;;;;;17.26;41.20;98326.06;10325636;28;1424;-70
2023/12/04 19:40:02;;;;;;;;;;;;;;;17.29;41.25;98306.59;10326326;28;930;-71
2023/12/04 19:44:58;;;;;;;;;;;;;;;17.28;41.22;98297.84;10326096;28;1910;-70
2023/12/04 19:49:54;;;;;;;;;;;;;;;17.27;41.41;98293.53;10326109;28;861;-70
2023/12/04 19:54:50;;;;;;;;;;;;;;;17.30;41.35;98288.06;10325981;28;848;-71
2023/12/04 19:59:46;;;;;;;;;;;;;;;17.29;41.45;98281.13;10325246;28;1087;-71
2023/12/04 20:04:42;;;;;;;;;;;;;;;17.31;41.35;98273.94;10325742;28;1959;-70
2023/12/04 20:09:39;;;;;;;;;;;;;;;17.29;41.33;98267.97;10325095;28;793;-71
2023/12/04 20:14:35;;;;;;;;;;;;;;;17.28;41.51;98260.97;10325006;28;864;-70
2023/12/04 20:19:31;;;;;;;;;;;;;;;17.32;41.07;98259.00;10324341;28;1631;-70
2023/12/04 20:24:27;;;;;;;;;;;;;;;17.32;41.46;98256.38;10324096;28;1893;-70
2023/12/04 20:29:23;;;;;;;;;;;;;;;17.30;41.47;98248.56;10331579;28;949;-70
2023/12/04 20:34:18;;;;;;;;;;;;;;;17.30;41.36;98238.03;10333172;28;1390;-70
2023/12/04 20:39:14;;;;;;;;;;;;;;;17.30;41.48;98240.66;10332555;28;896;-70
2023/12/04 20:44:10;;;;;;;;;;;;;;;17.25;41.49;98221.69;10332110;28;1918;-70
2023/12/04 20:49:07;;;;;;;;;;;;;;;17.25;41.63;98224.31;10333276;28;1079;-70
2023/12/04 20:54:03;;;;;;;;;;;;;;;17.24;41.69;98220.00;10332548;28;794;-70
2023/12/04 20:58:59;;;;;;;;;;;;;;;17.23;41.58;98217.47;10331879;28;909;-70
2023/12/04 21:03:56;;;;;;;;;;;;;;;17.22;41.63;98202.63;10332001;28;1894;-70
2023/12/04 21:08:52;;;;;;;;;;;;;;;17.21;41.52;98204.41;10331850;28;929;-70
2023/12/04 21:13:48;;;;;;;;;;;;;;;17.19;41.58;98206.31;10314437;28;772;-70
2023/12/04 21:18:44;;;;;;;;;;;;;;;17.20;41.72;98207.13;10330979;28;787;-70
2023/12/04 21:23:41;;;;;;;;;;;;;;;17.18;41.58;98199.31;10331269;28;1969;-70
2023/12/04 21:28:36;;;;;;;;;;;;;;;17.15;41.62;98199.53;10331227;28;763;-70
2023/12/04 21:33:32;;;;;;;;;;;;;;;17.17;41.55;98208.19;10330744;28;1227;-70
2023/12/04 21:38:28;;;;;;;;;;;;;;;17.16;41.57;98195.97;10329895;28;941;-70
2023/12/04 21:43:25;;;;;;;;;;;;;;;17.09;41.93;98176.25;10329982;28;1056;-70
2023/12/04 21:48:21;;;;;;;;;;;;;;;17.06;41.90;98179.94;10330299;28;1898;-70
2023/12/04 21:53:17;;;;;;;;;;;;;;;17.04;41.91;98163.38;10330235;28;786;-70
2023/12/04 21:58:13;;;;;;;;;;;;;;;17.01;41.98;98163.59;10330143;28;947;-70
2023/12/04 22:03:09;;;;;;;;;;;;;;;17.01;41.86;98160.13;10329889;28;782;-70
2023/12/04 22:08:05;;;;;;;;;;;;;;;16.97;42.00;98156.81;10329631;28;1961;-70
2023/12/04 22:13:01;;;;;;;;;;;;;;;16.94;42.10;98161.44;10328292;28;1173;-70
2023/12/04 22:17:57;;;;;;;;;;;;;;;16.93;42.10;98152.72;10329290;28;882;-70
2023/12/04 22:22:53;;;;;;;;;;;;;;;16.91;42.25;98143.22;10328494;28;894;-70
2023/12/04 22:27:49;;;;;;;;;;;;;;;16.90;42.21;98145.03;10328779;28;1901;-70
2023/12/04 22:32:45;;;;;;;;;;;;;;;16.87;42.21;98132.03;10327858;28;1527;-70
2023/12/04 22:37:41;;;;;;;;;;;;;;;16.86;42.18;98128.56;10329158;28;862;-70
2023/12/04 22:42:36;;;;;;;;;;;;;;;16.88;42.07;98132.91;10327638;28;974;-70
2023/12/04 22:47:32;;;;;;;;;;;;;;;16.86;42.04;98128.56;10327416;28;1985;-70
2023/12/04 22:52:28;;;;;;;;;;;;;;;16.88;42.17;98122.38;10327786;28;862;-70
2023/12/04 22:57:24;;;;;;;;;;;;;;;16.89;41.89;98129.31;10327182;28;909;-71
2023/12/04 23:02:20;;;;;;;;;;;;;;;16.86;42.14;98125.94;10327429;28;899;-70
2023/12/04 23:07:16;;;;;;;;;;;;;;;16.86;42.20;98115.41;10327220;28;1958;-70
2023/12/04 23:12:12;;;;;;;;;;;;;;;16.86;42.16;98119.84;10326557;28;853;-70
2023/12/04 23:17:08;;;;;;;;;;;;;;;16.85;41.94;98108.47;10326947;28;909;-70
2023/12/04 23:22:04;;;;;;;;;;;;;;;16.83;42.17;98112.16;10326244;28;778;-70
2023/12/04 23:26:59;;;;;;;;;;;;;;;16.83;42.14;98094.56;10325983;28;1914;-71
2023/12/04 23:31:55;;;;;;;;;;;;;;;16.83;42.02;98102.47;10326629;28;1047;-71
2023/12/04 23:36:51;;;;;;;;;;;;;;;16.83;42.18;98093.72;10326594;28;1253;-70
2023/12/04 23:41:47;;;;;;;;;;;;;;;16.84;42.00;98092.78;10325177;28;1326;-71
2023/12/04 23:46:43;;;;;;;;;;;;;;;16.81;42.08;98088.56;10325538;28;1918;-71
2023/12/04 23:51:39;;;;;;;;;;;;;;;16.80;42.23;98079.00;10325480;28;773;-70
2023/12/04 23:56:35;;;;;;;;;;;;;;;16.80;42.10;98071.09;10325564;28;926;-70
